sensor_id;sensor_type;location;lat;lon;timestamp;P1;durP1;ratioP1;P2;durP2;ratioP2
31652;SDS011;18261;53.648;9.910;2023-04-24T00:01:48;11.52;;;7.50;;
31652;SDS011;18261;53.648;9.910;2023-04-24T00:04:15;13.45;;;8.15;;
31652;SDS011;18261;53.648;9.910;2023-04-24T00:06:42;11.20;;;7.65;;
31652;SDS011;18261;53.648;9.910;2023-04-24T00:09:08;10.40;;;7.18;;
31652;SDS011;18261;53.648;9.910;2023-04-24T00:11:37;11.30;;;7.97;;
31652;SDS011;18261;53.648;9.910;2023-04-24T00:14:03;10.38;;;8.18;;
31652;SDS011;18261;53.648;9.910;2023-04-24T00:16:29;12.50;;;8.68;;
31652;SDS011;18261;53.648;9.910;2023-04-24T00:18:55;13.75;;;8.35;;
31652;SDS011;18261;53.648;9.910;2023-04-24T00:21:21;14.00;;;8.10;;
31652;SDS011;18261;53.648;9.910;2023-04-24T00:23:50;10.88;;;8.07;;
31652;SDS011;18261;53.648;9.910;2023-04-24T00:26:16;14.40;;;8.70;;
31652;SDS011;18261;53.648;9.910;2023-04-24T00:28:42;12.98;;;8.55;;
31652;SDS011;18261;53.648;9.910;2023-04-24T00:31:08;15.32;;;8.93;;
31652;SDS011;18261;53.648;9.910;2023-04-24T00:33:34;13.05;;;8.35;;
31652;SDS011;18261;53.648;9.910;2023-04-24T00:36:00;13.45;;;8.35;;
31652;SDS011;18261;53.648;9.910;2023-04-24T00:38:26;12.93;;;8.40;;
31652;SDS011;18261;53.648;9.910;2023-04-24T00:40:52;11.48;;;8.07;;
31652;SDS011;18261;53.648;9.910;2023-04-24T00:43:19;10.45;;;8.60;;
31652;SDS011;18261;53.648;9.910;2023-04-24T00:45:45;14.18;;;8.55;;
31652;SDS011;18261;53.648;9.910;2023-04-24T00:48:12;14.65;;;8.93;;
31652;SDS011;18261;53.648;9.910;2023-04-24T00:50:38;17.35;;;9.43;;
31652;SDS011;18261;53.648;9.910;2023-04-24T00:53:04;12.00;;;8.57;;
31652;SDS011;18261;53.648;9.910;2023-04-24T00:55:30;16.50;;;8.70;;
31652;SDS011;18261;53.648;9.910;2023-04-24T00:57:56;14.85;;;8.88;;
31652;SDS011;18261;53.648;9.910;2023-04-24T01:00:22;12.32;;;8.57;;
31652;SDS011;18261;53.648;9.910;2023-04-24T01:02:48;13.52;;;8.73;;
31652;SDS011;18261;53.648;9.910;2023-04-24T01:05:16;11.25;;;8.48;;
31652;SDS011;18261;53.648;9.910;2023-04-24T01:07:44;14.25;;;8.45;;
31652;SDS011;18261;53.648;9.910;2023-04-24T01:10:13;14.63;;;7.90;;
31652;SDS011;18261;53.648;9.910;2023-04-24T01:12:39;11.98;;;7.72;;
31652;SDS011;18261;53.648;9.910;2023-04-24T01:15:05;12.45;;;7.63;;
31652;SDS011;18261;53.648;9.910;2023-04-24T01:17:32;11.07;;;7.90;;
31652;SDS011;18261;53.648;9.910;2023-04-24T01:19:58;12.57;;;8.38;;
31652;SDS011;18261;53.648;9.910;2023-04-24T01:22:25;9.50;;;7.22;;
31652;SDS011;18261;53.648;9.910;2023-04-24T01:24:51;14.00;;;8.02;;
31652;SDS011;18261;53.648;9.910;2023-04-24T01:27:17;13.15;;;7.70;;
31652;SDS011;18261;53.648;9.910;2023-04-24T01:29:44;10.95;;;6.95;;
31652;SDS011;18261;53.648;9.910;2023-04-24T01:32:10;10.25;;;7.35;;
31652;SDS011;18261;53.648;9.910;2023-04-24T01:34:36;10.05;;;6.75;;
31652;SDS011;18261;53.648;9.910;2023-04-24T01:37:02;8.93;;;6.70;;
31652;SDS011;18261;53.648;9.910;2023-04-24T01:39:30;9.75;;;6.93;;
31652;SDS011;18261;53.648;9.910;2023-04-24T01:41:56;9.68;;;7.05;;
31652;SDS011;18261;53.648;9.910;2023-04-24T01:44:22;8.63;;;6.70;;
31652;SDS011;18261;53.648;9.910;2023-04-24T01:46:48;8.27;;;6.60;;
31652;SDS011;18261;53.648;9.910;2023-04-24T01:49:14;8.73;;;6.20;;
31652;SDS011;18261;53.648;9.910;2023-04-24T01:51:40;9.02;;;6.32;;
31652;SDS011;18261;53.648;9.910;2023-04-24T01:54:06;8.73;;;6.13;;
31652;SDS011;18261;53.648;9.910;2023-04-24T01:56:33;8.38;;;5.55;;
31652;SDS011;18261;53.648;9.910;2023-04-24T01:59:00;12.20;;;4.50;;
31652;SDS011;18261;53.648;9.910;2023-04-24T02:01:29;9.80;;;4.93;;
31652;SDS011;18261;53.648;9.910;2023-04-24T02:03:58;7.32;;;4.43;;
31652;SDS011;18261;53.648;9.910;2023-04-24T02:06:24;10.38;;;4.20;;
31652;SDS011;18261;53.648;9.910;2023-04-24T02:08:50;7.82;;;4.00;;
31652;SDS011;18261;53.648;9.910;2023-04-24T02:11:16;7.97;;;3.45;;
31652;SDS011;18261;53.648;9.910;2023-04-24T02:13:42;6.95;;;3.42;;
31652;SDS011;18261;53.648;9.910;2023-04-24T02:16:08;5.32;;;3.00;;
31652;SDS011;18261;53.648;9.910;2023-04-24T02:18:34;6.65;;;3.20;;
31652;SDS011;18261;53.648;9.910;2023-04-24T02:21:00;6.70;;;3.08;;
31652;SDS011;18261;53.648;9.910;2023-04-24T02:23:26;4.45;;;2.80;;
31652;SDS011;18261;53.648;9.910;2023-04-24T02:25:52;3.20;;;2.63;;
31652;SDS011;18261;53.648;9.910;2023-04-24T02:28:18;4.95;;;2.88;;
31652;SDS011;18261;53.648;9.910;2023-04-24T02:30:44;4.32;;;2.70;;
31652;SDS011;18261;53.648;9.910;2023-04-24T02:33:11;4.82;;;2.28;;
31652;SDS011;18261;53.648;9.910;2023-04-24T02:35:37;2.85;;;2.47;;
31652;SDS011;18261;53.648;9.910;2023-04-24T02:38:03;5.78;;;2.63;;
31652;SDS011;18261;53.648;9.910;2023-04-24T02:40:29;7.93;;;3.08;;
31652;SDS011;18261;53.648;9.910;2023-04-24T02:42:55;2.45;;;2.15;;
31652;SDS011;18261;53.648;9.910;2023-04-24T02:45:21;4.97;;;2.00;;
31652;SDS011;18261;53.648;9.910;2023-04-24T02:47:47;5.28;;;2.65;;
31652;SDS011;18261;53.648;9.910;2023-04-24T02:50:13;4.05;;;2.10;;
31652;SDS011;18261;53.648;9.910;2023-04-24T02:52:39;3.42;;;2.20;;
31652;SDS011;18261;53.648;9.910;2023-04-24T02:55:05;3.20;;;2.35;;
31652;SDS011;18261;53.648;9.910;2023-04-24T02:57:32;3.10;;;2.08;;
31652;SDS011;18261;53.648;9.910;2023-04-24T02:59:59;3.53;;;2.28;;
31652;SDS011;18261;53.648;9.910;2023-04-24T03:02:25;3.85;;;2.50;;
31652;SDS011;18261;53.648;9.910;2023-04-24T03:04:51;5.18;;;2.80;;
31652;SDS011;18261;53.648;9.910;2023-04-24T03:07:17;4.15;;;2.47;;
31652;SDS011;18261;53.648;9.910;2023-04-24T03:09:45;6.90;;;2.40;;
31652;SDS011;18261;53.648;9.910;2023-04-24T03:12:12;5.30;;;2.60;;
31652;SDS011;18261;53.648;9.910;2023-04-24T03:14:38;4.97;;;2.47;;
31652;SDS011;18261;53.648;9.910;2023-04-24T03:17:04;6.05;;;2.85;;
31652;SDS011;18261;53.648;9.910;2023-04-24T03:19:30;5.28;;;3.03;;
31652;SDS011;18261;53.648;9.910;2023-04-24T03:21:56;5.90;;;2.60;;
31652;SDS011;18261;53.648;9.910;2023-04-24T03:24:22;5.65;;;2.75;;
31652;SDS011;18261;53.648;9.910;2023-04-24T03:26:48;6.35;;;2.50;;
31652;SDS011;18261;53.648;9.910;2023-04-24T03:29:14;3.92;;;2.42;;
31652;SDS011;18261;53.648;9.910;2023-04-24T03:31:40;3.78;;;2.35;;
31652;SDS011;18261;53.648;9.910;2023-04-24T03:34:06;5.82;;;2.70;;
31652;SDS011;18261;53.648;9.910;2023-04-24T03:36:32;4.68;;;2.50;;
31652;SDS011;18261;53.648;9.910;2023-04-24T03:38:58;10.82;;;2.63;;
31652;SDS011;18261;53.648;9.910;2023-04-24T03:41:24;5.45;;;2.60;;
31652;SDS011;18261;53.648;9.910;2023-04-24T03:43:50;3.70;;;2.55;;
31652;SDS011;18261;53.648;9.910;2023-04-24T03:46:16;6.68;;;3.72;;
31652;SDS011;18261;53.648;9.910;2023-04-24T03:48:42;4.45;;;2.72;;
31652;SDS011;18261;53.648;9.910;2023-04-24T03:51:08;3.70;;;2.50;;
31652;SDS011;18261;53.648;9.910;2023-04-24T03:53:34;3.83;;;2.58;;
31652;SDS011;18261;53.648;9.910;2023-04-24T03:56:00;3.45;;;2.47;;
31652;SDS011;18261;53.648;9.910;2023-04-24T03:58:26;4.43;;;2.75;;
31652;SDS011;18261;53.648;9.910;2023-04-24T04:00:52;5.28;;;2.50;;
31652;SDS011;18261;53.648;9.910;2023-04-24T04:03:18;4.20;;;2.30;;
31652;SDS011;18261;53.648;9.910;2023-04-24T04:05:44;4.05;;;2.75;;
31652;SDS011;18261;53.648;9.910;2023-04-24T04:08:10;2.85;;;2.20;;
31652;SDS011;18261;53.648;9.910;2023-04-24T04:10:36;3.83;;;2.58;;
31652;SDS011;18261;53.648;9.910;2023-04-24T04:13:02;4.40;;;2.15;;
31652;SDS011;18261;53.648;9.910;2023-04-24T04:15:28;4.00;;;2.50;;
31652;SDS011;18261;53.648;9.910;2023-04-24T04:17:54;4.75;;;2.22;;
31652;SDS011;18261;53.648;9.910;2023-04-24T04:20:20;6.53;;;2.40;;
31652;SDS011;18261;53.648;9.910;2023-04-24T04:22:46;6.40;;;2.75;;
31652;SDS011;18261;53.648;9.910;2023-04-24T04:25:12;3.90;;;2.30;;
31652;SDS011;18261;53.648;9.910;2023-04-24T04:27:38;4.25;;;2.35;;
31652;SDS011;18261;53.648;9.910;2023-04-24T04:30:06;5.80;;;2.10;;
31652;SDS011;18261;53.648;9.910;2023-04-24T04:32:34;2.95;;;2.10;;
31652;SDS011;18261;53.648;9.910;2023-04-24T04:35:00;3.40;;;2.13;;
31652;SDS011;18261;53.648;9.910;2023-04-24T04:37:30;2.95;;;2.30;;
31652;SDS011;18261;53.648;9.910;2023-04-24T04:39:57;4.20;;;2.65;;
31652;SDS011;18261;53.648;9.910;2023-04-24T04:42:24;4.57;;;2.22;;
31652;SDS011;18261;53.648;9.910;2023-04-24T04:44:50;3.13;;;2.15;;
31652;SDS011;18261;53.648;9.910;2023-04-24T04:47:16;2.97;;;2.03;;
31652;SDS011;18261;53.648;9.910;2023-04-24T04:49:42;6.95;;;2.30;;
31652;SDS011;18261;53.648;9.910;2023-04-24T04:52:09;3.63;;;2.05;;
31652;SDS011;18261;53.648;9.910;2023-04-24T04:54:35;5.18;;;1.90;;
31652;SDS011;18261;53.648;9.910;2023-04-24T04:57:01;8.13;;;1.85;;
31652;SDS011;18261;53.648;9.910;2023-04-24T04:59:27;3.85;;;1.80;;
31652;SDS011;18261;53.648;9.910;2023-04-24T05:01:53;3.33;;;2.00;;
31652;SDS011;18261;53.648;9.910;2023-04-24T05:04:19;5.03;;;1.92;;
31652;SDS011;18261;53.648;9.910;2023-04-24T05:06:45;5.40;;;2.30;;
31652;SDS011;18261;53.648;9.910;2023-04-24T05:09:12;6.03;;;1.92;;
31652;SDS011;18261;53.648;9.910;2023-04-24T05:11:38;2.53;;;1.60;;
31652;SDS011;18261;53.648;9.910;2023-04-24T05:14:04;8.73;;;2.35;;
31652;SDS011;18261;53.648;9.910;2023-04-24T05:16:30;5.00;;;2.05;;
31652;SDS011;18261;53.648;9.910;2023-04-24T05:18:56;2.33;;;1.88;;
31652;SDS011;18261;53.648;9.910;2023-04-24T05:21:22;6.60;;;2.38;;
31652;SDS011;18261;53.648;9.910;2023-04-24T05:23:48;2.63;;;1.83;;
31652;SDS011;18261;53.648;9.910;2023-04-24T05:26:14;2.55;;;1.73;;
31652;SDS011;18261;53.648;9.910;2023-04-24T05:28:40;7.20;;;2.03;;
31652;SDS011;18261;53.648;9.910;2023-04-24T05:31:06;9.55;;;1.80;;
31652;SDS011;18261;53.648;9.910;2023-04-24T05:33:32;5.15;;;2.20;;
31652;SDS011;18261;53.648;9.910;2023-04-24T05:35:58;2.25;;;1.77;;
31652;SDS011;18261;53.648;9.910;2023-04-24T05:38:24;3.05;;;1.60;;
31652;SDS011;18261;53.648;9.910;2023-04-24T05:40:50;3.00;;;1.77;;
31652;SDS011;18261;53.648;9.910;2023-04-24T05:43:16;5.07;;;1.75;;
31652;SDS011;18261;53.648;9.910;2023-04-24T05:45:42;3.58;;;1.48;;
31652;SDS011;18261;53.648;9.910;2023-04-24T05:48:08;11.10;;;1.52;;
31652;SDS011;18261;53.648;9.910;2023-04-24T05:50:34;2.72;;;1.60;;
31652;SDS011;18261;53.648;9.910;2023-04-24T05:53:00;4.38;;;1.70;;
31652;SDS011;18261;53.648;9.910;2023-04-24T05:55:30;4.95;;;1.60;;
31652;SDS011;18261;53.648;9.910;2023-04-24T05:57:56;5.05;;;1.60;;
31652;SDS011;18261;53.648;9.910;2023-04-24T06:00:23;4.90;;;1.90;;
31652;SDS011;18261;53.648;9.910;2023-04-24T06:02:49;6.43;;;1.85;;
31652;SDS011;18261;53.648;9.910;2023-04-24T06:05:16;4.03;;;2.00;;
31652;SDS011;18261;53.648;9.910;2023-04-24T06:07:42;6.05;;;2.28;;
31652;SDS011;18261;53.648;9.910;2023-04-24T06:10:08;3.75;;;1.83;;
31652;SDS011;18261;53.648;9.910;2023-04-24T06:12:35;4.10;;;1.60;;
31652;SDS011;18261;53.648;9.910;2023-04-24T06:15:01;3.65;;;1.90;;
31652;SDS011;18261;53.648;9.910;2023-04-24T06:17:27;3.72;;;1.80;;
31652;SDS011;18261;53.648;9.910;2023-04-24T06:19:53;3.42;;;1.98;;
31652;SDS011;18261;53.648;9.910;2023-04-24T06:22:19;3.67;;;1.95;;
31652;SDS011;18261;53.648;9.910;2023-04-24T06:24:45;5.03;;;2.10;;
31652;SDS011;18261;53.648;9.910;2023-04-24T06:27:13;3.22;;;1.95;;
31652;SDS011;18261;53.648;9.910;2023-04-24T06:29:39;3.83;;;2.13;;
31652;SDS011;18261;53.648;9.910;2023-04-24T06:32:05;3.28;;;2.03;;
31652;SDS011;18261;53.648;9.910;2023-04-24T06:34:31;7.50;;;2.10;;
31652;SDS011;18261;53.648;9.910;2023-04-24T06:36:58;6.60;;;2.40;;
31652;SDS011;18261;53.648;9.910;2023-04-24T06:39:24;3.38;;;1.90;;
31652;SDS011;18261;53.648;9.910;2023-04-24T06:41:50;4.50;;;1.88;;
31652;SDS011;18261;53.648;9.910;2023-04-24T06:44:16;3.92;;;1.95;;
31652;SDS011;18261;53.648;9.910;2023-04-24T06:46:42;2.88;;;1.88;;
31652;SDS011;18261;53.648;9.910;2023-04-24T06:49:09;4.15;;;2.13;;
31652;SDS011;18261;53.648;9.910;2023-04-24T06:51:35;4.55;;;2.33;;
31652;SDS011;18261;53.648;9.910;2023-04-24T06:54:01;3.83;;;2.25;;
31652;SDS011;18261;53.648;9.910;2023-04-24T06:56:27;3.88;;;2.20;;
31652;SDS011;18261;53.648;9.910;2023-04-24T06:58:54;3.28;;;1.95;;
31652;SDS011;18261;53.648;9.910;2023-04-24T07:01:20;3.45;;;2.42;;
31652;SDS011;18261;53.648;9.910;2023-04-24T07:03:46;4.88;;;2.00;;
31652;SDS011;18261;53.648;9.910;2023-04-24T07:06:12;5.10;;;2.35;;
31652;SDS011;18261;53.648;9.910;2023-04-24T07:08:38;3.90;;;2.30;;
31652;SDS011;18261;53.648;9.910;2023-04-24T07:11:04;4.88;;;2.60;;
31652;SDS011;18261;53.648;9.910;2023-04-24T07:13:30;7.18;;;2.35;;
31652;SDS011;18261;53.648;9.910;2023-04-24T07:15:56;7.65;;;2.85;;
31652;SDS011;18261;53.648;9.910;2023-04-24T07:18:22;3.55;;;2.20;;
31652;SDS011;18261;53.648;9.910;2023-04-24T07:20:48;6.85;;;2.70;;
31652;SDS011;18261;53.648;9.910;2023-04-24T07:23:18;7.60;;;3.13;;
31652;SDS011;18261;53.648;9.910;2023-04-24T07:25:44;7.38;;;3.03;;
31652;SDS011;18261;53.648;9.910;2023-04-24T07:28:10;5.65;;;2.90;;
31652;SDS011;18261;53.648;9.910;2023-04-24T07:30:36;6.18;;;2.88;;
31652;SDS011;18261;53.648;9.910;2023-04-24T07:33:02;9.35;;;3.15;;
31652;SDS011;18261;53.648;9.910;2023-04-24T07:35:28;8.15;;;3.72;;
31652;SDS011;18261;53.648;9.910;2023-04-24T07:37:54;7.90;;;4.00;;
31652;SDS011;18261;53.648;9.910;2023-04-24T07:40:20;6.60;;;3.67;;
31652;SDS011;18261;53.648;9.910;2023-04-24T07:42:46;6.10;;;3.40;;
31652;SDS011;18261;53.648;9.910;2023-04-24T07:45:13;9.65;;;3.70;;
31652;SDS011;18261;53.648;9.910;2023-04-24T07:47:40;9.50;;;3.58;;
31652;SDS011;18261;53.648;9.910;2023-04-24T07:50:08;7.35;;;3.90;;
31652;SDS011;18261;53.648;9.910;2023-04-24T07:52:35;5.88;;;3.55;;
31652;SDS011;18261;53.648;9.910;2023-04-24T07:55:01;6.90;;;4.38;;
31652;SDS011;18261;53.648;9.910;2023-04-24T07:57:27;8.48;;;4.32;;
31652;SDS011;18261;53.648;9.910;2023-04-24T07:59:54;8.98;;;4.55;;
31652;SDS011;18261;53.648;9.910;2023-04-24T08:02:20;10.68;;;4.78;;
31652;SDS011;18261;53.648;9.910;2023-04-24T08:04:51;6.40;;;3.90;;
31652;SDS011;18261;53.648;9.910;2023-04-24T08:07:17;7.20;;;4.50;;
31652;SDS011;18261;53.648;9.910;2023-04-24T08:09:43;11.52;;;4.95;;
31652;SDS011;18261;53.648;9.910;2023-04-24T08:12:09;5.25;;;4.25;;
31652;SDS011;18261;53.648;9.910;2023-04-24T08:14:35;14.68;;;4.35;;
31652;SDS011;18261;53.648;9.910;2023-04-24T08:17:01;8.20;;;4.97;;
31652;SDS011;18261;53.648;9.910;2023-04-24T08:19:28;10.10;;;4.80;;
31652;SDS011;18261;53.648;9.910;2023-04-24T08:21:54;7.47;;;4.07;;
31652;SDS011;18261;53.648;9.910;2023-04-24T08:24:20;7.53;;;4.47;;
31652;SDS011;18261;53.648;9.910;2023-04-24T08:26:46;6.97;;;3.40;;
31652;SDS011;18261;53.648;9.910;2023-04-24T08:29:15;8.35;;;3.00;;
31652;SDS011;18261;53.648;9.910;2023-04-24T08:31:41;5.30;;;2.80;;
31652;SDS011;18261;53.648;9.910;2023-04-24T08:34:07;4.88;;;2.13;;
31652;SDS011;18261;53.648;9.910;2023-04-24T08:36:33;6.93;;;3.60;;
31652;SDS011;18261;53.648;9.910;2023-04-24T08:38:59;3.60;;;3.05;;
31652;SDS011;18261;53.648;9.910;2023-04-24T08:41:25;9.23;;;3.80;;
31652;SDS011;18261;53.648;9.910;2023-04-24T08:43:52;6.68;;;3.92;;
31652;SDS011;18261;53.648;9.910;2023-04-24T08:46:20;4.90;;;4.15;;
31652;SDS011;18261;53.648;9.910;2023-04-24T08:48:46;6.20;;;4.40;;
31652;SDS011;18261;53.648;9.910;2023-04-24T08:51:12;7.95;;;4.80;;
31652;SDS011;18261;53.648;9.910;2023-04-24T08:53:38;8.13;;;5.15;;
31652;SDS011;18261;53.648;9.910;2023-04-24T08:56:04;9.05;;;5.70;;
31652;SDS011;18261;53.648;9.910;2023-04-24T08:58:31;11.73;;;5.45;;
31652;SDS011;18261;53.648;9.910;2023-04-24T09:00:57;9.75;;;5.50;;
31652;SDS011;18261;53.648;9.910;2023-04-24T09:03:24;10.85;;;5.57;;
31652;SDS011;18261;53.648;9.910;2023-04-24T09:05:50;9.85;;;5.90;;
31652;SDS011;18261;53.648;9.910;2023-04-24T09:08:17;11.32;;;6.68;;
31652;SDS011;18261;53.648;9.910;2023-04-24T09:10:44;11.05;;;6.03;;
31652;SDS011;18261;53.648;9.910;2023-04-24T09:13:10;10.15;;;6.53;;
31652;SDS011;18261;53.648;9.910;2023-04-24T09:15:37;10.48;;;6.80;;
31652;SDS011;18261;53.648;9.910;2023-04-24T09:18:03;10.80;;;6.82;;
31652;SDS011;18261;53.648;9.910;2023-04-24T09:20:30;10.70;;;6.43;;
31652;SDS011;18261;53.648;9.910;2023-04-24T09:22:57;10.80;;;6.63;;
31652;SDS011;18261;53.648;9.910;2023-04-24T09:25:25;9.45;;;6.40;;
31652;SDS011;18261;53.648;9.910;2023-04-24T09:27:58;11.90;;;7.18;;
31652;SDS011;18261;53.648;9.910;2023-04-24T09:30:26;9.82;;;6.30;;
31652;SDS011;18261;53.648;9.910;2023-04-24T09:33:10;11.73;;;6.93;;
31652;SDS011;18261;53.648;9.910;2023-04-24T09:35:37;16.25;;;6.80;;
31652;SDS011;18261;53.648;9.910;2023-04-24T09:38:05;11.70;;;7.10;;
31652;SDS011;18261;53.648;9.910;2023-04-24T09:40:31;10.52;;;6.65;;
31652;SDS011;18261;53.648;9.910;2023-04-24T09:42:59;16.10;;;6.88;;
31652;SDS011;18261;53.648;9.910;2023-04-24T09:45:31;10.50;;;7.10;;
31652;SDS011;18261;53.648;9.910;2023-04-24T09:48:01;9.23;;;6.15;;
31652;SDS011;18261;53.648;9.910;2023-04-24T09:50:27;9.30;;;5.95;;
31652;SDS011;18261;53.648;9.910;2023-04-24T09:52:56;8.38;;;6.32;;
31652;SDS011;18261;53.648;9.910;2023-04-24T09:55:23;11.52;;;6.68;;
31652;SDS011;18261;53.648;9.910;2023-04-24T09:58:00;12.20;;;6.65;;
31652;SDS011;18261;53.648;9.910;2023-04-24T10:02:59;10.52;;;6.95;;
31652;SDS011;18261;53.648;9.910;2023-04-24T10:05:29;17.53;;;8.60;;
31652;SDS011;18261;53.648;9.910;2023-04-24T10:07:57;9.75;;;6.82;;
31652;SDS011;18261;53.648;9.910;2023-04-24T10:10:23;12.68;;;7.78;;
31652;SDS011;18261;53.648;9.910;2023-04-24T10:12:50;14.65;;;8.68;;
31652;SDS011;18261;53.648;9.910;2023-04-24T10:15:16;18.05;;;7.88;;
31652;SDS011;18261;53.648;9.910;2023-04-24T10:17:46;15.82;;;8.70;;
31652;SDS011;18261;53.648;9.910;2023-04-24T10:20:17;16.30;;;9.23;;
31652;SDS011;18261;53.648;9.910;2023-04-24T10:22:43;16.40;;;8.32;;
31652;SDS011;18261;53.648;9.910;2023-04-24T10:25:11;14.02;;;9.32;;
31652;SDS011;18261;53.648;9.910;2023-04-24T10:27:37;16.85;;;9.85;;
31652;SDS011;18261;53.648;9.910;2023-04-24T10:30:03;21.08;;;12.77;;
31652;SDS011;18261;53.648;9.910;2023-04-24T10:32:31;15.98;;;10.50;;
31652;SDS011;18261;53.648;9.910;2023-04-24T10:34:57;15.82;;;9.70;;
31652;SDS011;18261;53.648;9.910;2023-04-24T10:37:23;17.13;;;11.23;;
31652;SDS011;18261;53.648;9.910;2023-04-24T10:39:49;20.08;;;11.70;;
31652;SDS011;18261;53.648;9.910;2023-04-24T10:42:19;22.75;;;11.65;;
31652;SDS011;18261;53.648;9.910;2023-04-24T10:44:47;18.45;;;11.85;;
31652;SDS011;18261;53.648;9.910;2023-04-24T10:47:14;18.45;;;11.82;;
31652;SDS011;18261;53.648;9.910;2023-04-24T10:49:40;19.35;;;12.95;;
31652;SDS011;18261;53.648;9.910;2023-04-24T10:52:06;21.23;;;12.57;;
31652;SDS011;18261;53.648;9.910;2023-04-24T10:54:35;19.55;;;12.65;;
31652;SDS011;18261;53.648;9.910;2023-04-24T10:59:46;22.13;;;11.93;;
31652;SDS011;18261;53.648;9.910;2023-04-24T11:02:15;22.65;;;12.50;;
31652;SDS011;18261;53.648;9.910;2023-04-24T11:04:41;24.02;;;13.02;;
31652;SDS011;18261;53.648;9.910;2023-04-24T11:07:11;19.35;;;12.32;;
31652;SDS011;18261;53.648;9.910;2023-04-24T11:09:37;22.38;;;12.70;;
31652;SDS011;18261;53.648;9.910;2023-04-24T11:12:06;21.65;;;13.07;;
31652;SDS011;18261;53.648;9.910;2023-04-24T11:17:31;21.15;;;13.07;;
31652;SDS011;18261;53.648;9.910;2023-04-24T11:20:02;24.30;;;12.60;;
31652;SDS011;18261;53.648;9.910;2023-04-24T11:22:29;20.58;;;13.13;;
31652;SDS011;18261;53.648;9.910;2023-04-24T11:24:59;22.73;;;12.57;;
31652;SDS011;18261;53.648;9.910;2023-04-24T11:27:31;18.70;;;11.93;;
31652;SDS011;18261;53.648;9.910;2023-04-24T11:34:56;19.98;;;12.80;;
31652;SDS011;18261;53.648;9.910;2023-04-24T11:37:23;25.67;;;13.45;;
31652;SDS011;18261;53.648;9.910;2023-04-24T11:39:50;26.65;;;12.85;;
31652;SDS011;18261;53.648;9.910;2023-04-24T11:42:16;19.73;;;13.07;;
31652;SDS011;18261;53.648;9.910;2023-04-24T11:44:43;20.38;;;12.73;;
31652;SDS011;18261;53.648;9.910;2023-04-24T11:47:12;22.10;;;12.45;;
31652;SDS011;18261;53.648;9.910;2023-04-24T11:49:38;19.25;;;12.70;;
31652;SDS011;18261;53.648;9.910;2023-04-24T11:52:04;19.55;;;11.82;;
31652;SDS011;18261;53.648;9.910;2023-04-24T11:54:31;18.42;;;11.85;;
31652;SDS011;18261;53.648;9.910;2023-04-24T11:56:57;15.73;;;11.57;;
31652;SDS011;18261;53.648;9.910;2023-04-24T11:59:23;19.23;;;11.73;;
31652;SDS011;18261;53.648;9.910;2023-04-24T12:01:49;18.92;;;11.35;;
31652;SDS011;18261;53.648;9.910;2023-04-24T12:04:16;18.92;;;11.65;;
31652;SDS011;18261;53.648;9.910;2023-04-24T12:09:27;16.35;;;10.02;;
31652;SDS011;18261;53.648;9.910;2023-04-24T12:11:53;18.52;;;10.00;;
31652;SDS011;18261;53.648;9.910;2023-04-24T12:14:21;16.40;;;8.88;;
31652;SDS011;18261;53.648;9.910;2023-04-24T12:16:48;14.18;;;8.50;;
31652;SDS011;18261;53.648;9.910;2023-04-24T12:19:18;20.92;;;8.85;;
31652;SDS011;18261;53.648;9.910;2023-04-24T12:21:45;13.98;;;8.00;;
31652;SDS011;18261;53.648;9.910;2023-04-24T12:24:23;13.65;;;8.73;;
31652;SDS011;18261;53.648;9.910;2023-04-24T12:26:49;13.45;;;8.00;;
31652;SDS011;18261;53.648;9.910;2023-04-24T12:29:21;13.35;;;9.05;;
31652;SDS011;18261;53.648;9.910;2023-04-24T12:31:48;16.70;;;9.60;;
31652;SDS011;18261;53.648;9.910;2023-04-24T12:34:17;23.27;;;8.57;;
31652;SDS011;18261;53.648;9.910;2023-04-24T12:36:43;13.55;;;8.80;;
31652;SDS011;18261;53.648;9.910;2023-04-24T12:39:19;16.33;;;8.50;;
31652;SDS011;18261;53.648;9.910;2023-04-24T12:41:57;14.23;;;8.30;;
31652;SDS011;18261;53.648;9.910;2023-04-24T12:44:31;13.82;;;8.93;;
31652;SDS011;18261;53.648;9.910;2023-04-24T12:46:57;11.60;;;8.13;;
31652;SDS011;18261;53.648;9.910;2023-04-24T12:49:23;13.05;;;8.75;;
31652;SDS011;18261;53.648;9.910;2023-04-24T12:51:49;14.10;;;9.10;;
31652;SDS011;18261;53.648;9.910;2023-04-24T12:54:15;17.42;;;8.98;;
31652;SDS011;18261;53.648;9.910;2023-04-24T12:56:41;13.10;;;9.38;;
31652;SDS011;18261;53.648;9.910;2023-04-24T12:59:07;15.45;;;9.27;;
31652;SDS011;18261;53.648;9.910;2023-04-24T13:01:33;13.88;;;8.82;;
31652;SDS011;18261;53.648;9.910;2023-04-24T13:03:59;12.32;;;8.27;;
31652;SDS011;18261;53.648;9.910;2023-04-24T13:06:25;12.95;;;8.18;;
31652;SDS011;18261;53.648;9.910;2023-04-24T13:08:51;12.18;;;7.97;;
31652;SDS011;18261;53.648;9.910;2023-04-24T13:11:17;13.85;;;7.97;;
31652;SDS011;18261;53.648;9.910;2023-04-24T13:13:43;20.60;;;7.45;;
31652;SDS011;18261;53.648;9.910;2023-04-24T13:16:09;10.77;;;7.20;;
31652;SDS011;18261;53.648;9.910;2023-04-24T13:18:35;11.15;;;7.50;;
31652;SDS011;18261;53.648;9.910;2023-04-24T13:21:01;9.65;;;6.68;;
31652;SDS011;18261;53.648;9.910;2023-04-24T13:23:27;9.25;;;6.68;;
31652;SDS011;18261;53.648;9.910;2023-04-24T13:25:54;13.32;;;7.78;;
31652;SDS011;18261;53.648;9.910;2023-04-24T13:28:24;11.73;;;7.00;;
31652;SDS011;18261;53.648;9.910;2023-04-24T13:30:50;11.18;;;7.30;;
31652;SDS011;18261;53.648;9.910;2023-04-24T13:33:16;9.98;;;6.93;;
31652;SDS011;18261;53.648;9.910;2023-04-24T13:35:42;11.07;;;7.55;;
31652;SDS011;18261;53.648;9.910;2023-04-24T13:38:08;13.45;;;7.18;;
31652;SDS011;18261;53.648;9.910;2023-04-24T13:40:34;11.95;;;8.63;;
31652;SDS011;18261;53.648;9.910;2023-04-24T13:43:00;16.48;;;10.15;;
31652;SDS011;18261;53.648;9.910;2023-04-24T13:45:26;12.68;;;8.23;;
31652;SDS011;18261;53.648;9.910;2023-04-24T13:47:52;12.80;;;8.40;;
31652;SDS011;18261;53.648;9.910;2023-04-24T13:50:19;11.50;;;7.60;;
31652;SDS011;18261;53.648;9.910;2023-04-24T13:52:45;10.35;;;7.15;;
31652;SDS011;18261;53.648;9.910;2023-04-24T13:55:11;10.38;;;7.60;;
31652;SDS011;18261;53.648;9.910;2023-04-24T13:57:37;16.00;;;8.20;;
31652;SDS011;18261;53.648;9.910;2023-04-24T14:00:03;12.75;;;8.40;;
31652;SDS011;18261;53.648;9.910;2023-04-24T14:02:31;11.77;;;8.15;;
31652;SDS011;18261;53.648;9.910;2023-04-24T14:04:57;16.85;;;7.75;;
31652;SDS011;18261;53.648;9.910;2023-04-24T14:07:23;12.65;;;8.00;;
31652;SDS011;18261;53.648;9.910;2023-04-24T14:09:49;11.27;;;7.82;;
31652;SDS011;18261;53.648;9.910;2023-04-24T14:12:15;12.65;;;7.78;;
31652;SDS011;18261;53.648;9.910;2023-04-24T14:14:44;24.13;;;15.90;;
31652;SDS011;18261;53.648;9.910;2023-04-24T14:17:10;22.73;;;14.13;;
31652;SDS011;18261;53.648;9.910;2023-04-24T14:19:36;21.27;;;14.43;;
31652;SDS011;18261;53.648;9.910;2023-04-24T14:22:02;12.48;;;9.07;;
31652;SDS011;18261;53.648;9.910;2023-04-24T14:24:28;12.25;;;9.77;;
31652;SDS011;18261;53.648;9.910;2023-04-24T14:26:54;20.90;;;10.02;;
31652;SDS011;18261;53.648;9.910;2023-04-24T14:29:21;14.77;;;10.55;;
31652;SDS011;18261;53.648;9.910;2023-04-24T14:31:47;13.10;;;10.15;;
31652;SDS011;18261;53.648;9.910;2023-04-24T14:34:13;14.25;;;10.27;;
31652;SDS011;18261;53.648;9.910;2023-04-24T14:36:40;14.93;;;11.10;;
31652;SDS011;18261;53.648;9.910;2023-04-24T14:39:06;15.98;;;11.70;;
31652;SDS011;18261;53.648;9.910;2023-04-24T14:41:32;16.25;;;11.75;;
31652;SDS011;18261;53.648;9.910;2023-04-24T14:44:01;12.82;;;10.77;;
31652;SDS011;18261;53.648;9.910;2023-04-24T14:46:27;19.05;;;12.95;;
31652;SDS011;18261;53.648;9.910;2023-04-24T14:48:54;15.95;;;12.52;;
31652;SDS011;18261;53.648;9.910;2023-04-24T14:51:21;18.30;;;13.80;;